sensor_id;sensor_type;location;lat;lon;timestamp;pressure;altitude;pressure_sealevel;temperature;humidity
65872;BME280;52653;50.080;21.992;2023-03-07T00:01:35;97871.43;;;0.50;88.69
65872;BME280;52653;50.080;21.992;2023-03-07T00:04:08;97871.75;;;0.47;88.71
65872;BME280;52653;50.080;21.992;2023-03-07T00:06:43;97870.33;;;0.42;88.39
65872;BME280;52653;50.080;21.992;2023-03-07T00:09:16;97870.94;;;0.36;88.36
65872;BME280;52653;50.080;21.992;2023-03-07T00:11:49;97870.70;;;0.29;88.27
65872;BME280;52653;50.080;21.992;2023-03-07T00:14:23;97869.75;;;0.21;88.09
65872;BME280;52653;50.080;21.992;2023-03-07T00:16:56;97869.81;;;0.11;87.94
65872;BME280;52653;50.080;21.992;2023-03-07T00:19:28;97866.41;;;0.01;87.63
65872;BME280;52653;50.080;21.992;2023-03-07T00:22:01;97870.95;;;-0.08;87.73
65872;BME280;52653;50.080;21.992;2023-03-07T00:24:33;97869.98;;;-0.17;87.55
65872;BME280;52653;50.080;21.992;2023-03-07T00:27:06;97870.55;;;-0.25;87.83
65872;BME280;52653;50.080;21.992;2023-03-07T00:29:42;97867.03;;;-0.31;87.91
65872;BME280;52653;50.080;21.992;2023-03-07T00:32:15;97872.33;;;-0.35;88.08
65872;BME280;52653;50.080;21.992;2023-03-07T00:34:48;97867.95;;;-0.39;88.43
65872;BME280;52653;50.080;21.992;2023-03-07T00:37:20;97871.04;;;-0.39;88.71
65872;BME280;52653;50.080;21.992;2023-03-07T00:39:53;97866.63;;;-0.36;88.87
65872;BME280;52653;50.080;21.992;2023-03-07T00:42:27;97859.42;;;-0.34;89.13
65872;BME280;52653;50.080;21.992;2023-03-07T00:45:03;97859.96;;;-0.32;89.15
65872;BME280;52653;50.080;21.992;2023-03-07T00:47:56;97859.30;;;-0.28;89.28
65872;BME280;52653;50.080;21.992;2023-03-07T00:50:30;97857.98;;;-0.24;89.27
65872;BME280;52653;50.080;21.992;2023-03-07T00:53:04;97857.34;;;-0.22;89.13
65872;BME280;52653;50.080;21.992;2023-03-07T00:55:37;97853.92;;;-0.19;89.31
65872;BME280;52653;50.080;21.992;2023-03-07T00:58:10;97853.08;;;-0.17;89.20
65872;BME280;52653;50.080;21.992;2023-03-07T01:00:43;97851.00;;;-0.18;88.96
65872;BME280;52653;50.080;21.992;2023-03-07T01:03:17;97848.41;;;-0.20;88.87
65872;BME280;52653;50.080;21.992;2023-03-07T01:05:50;97845.27;;;-0.23;88.62
65872;BME280;52653;50.080;21.992;2023-03-07T01:08:24;97842.96;;;-0.26;88.55
65872;BME280;52653;50.080;21.992;2023-03-07T01:11:02;97842.58;;;-0.31;88.42
65872;BME280;52653;50.080;21.992;2023-03-07T01:13:34;97844.42;;;-0.35;88.48
65872;BME280;52653;50.080;21.992;2023-03-07T01:16:12;97836.60;;;-0.39;88.44
65872;BME280;52653;50.080;21.992;2023-03-07T01:18:49;97831.36;;;-0.45;88.33
65872;BME280;52653;50.080;21.992;2023-03-07T01:21:25;97829.07;;;-0.50;88.30
65872;BME280;52653;50.080;21.992;2023-03-07T01:24:00;97825.19;;;-0.55;88.35
65872;BME280;52653;50.080;21.992;2023-03-07T01:26:33;97822.55;;;-0.60;88.37
65872;BME280;52653;50.080;21.992;2023-03-07T01:29:09;97823.68;;;-0.65;88.30
65872;BME280;52653;50.080;21.992;2023-03-07T01:31:42;97822.27;;;-0.68;88.34
65872;BME280;52653;50.080;21.992;2023-03-07T01:34:15;97819.99;;;-0.71;88.45
65872;BME280;52653;50.080;21.992;2023-03-07T01:36:48;97817.55;;;-0.73;88.59
65872;BME280;52653;50.080;21.992;2023-03-07T01:39:21;97815.64;;;-0.75;88.52
65872;BME280;52653;50.080;21.992;2023-03-07T01:42:00;97814.20;;;-0.77;88.45
65872;BME280;52653;50.080;21.992;2023-03-07T01:44:59;97816.40;;;-0.80;88.22
65872;BME280;52653;50.080;21.992;2023-03-07T01:47:43;97814.10;;;-0.86;88.32
65872;BME280;52653;50.080;21.992;2023-03-07T01:50:17;97814.89;;;-0.90;88.43
65872;BME280;52653;50.080;21.992;2023-03-07T01:52:52;97811.92;;;-0.92;88.42
65872;BME280;52653;50.080;21.992;2023-03-07T01:55:28;97809.66;;;-0.94;88.51
65872;BME280;52653;50.080;21.992;2023-03-07T01:58:15;97809.63;;;-0.97;88.54
65872;BME280;52653;50.080;21.992;2023-03-07T02:00:48;97810.30;;;-0.98;88.58
65872;BME280;52653;50.080;21.992;2023-03-07T02:03:27;97813.05;;;-0.99;88.67
65872;BME280;52653;50.080;21.992;2023-03-07T02:06:04;97810.83;;;-0.98;88.71
65872;BME280;52653;50.080;21.992;2023-03-07T02:08:40;97811.02;;;-0.96;88.85
65872;BME280;52653;50.080;21.992;2023-03-07T02:11:13;97813.81;;;-0.93;88.88
65872;BME280;52653;50.080;21.992;2023-03-07T02:13:47;97815.79;;;-0.88;89.15
65872;BME280;52653;50.080;21.992;2023-03-07T02:16:20;97813.30;;;-0.81;89.40
65872;BME280;52653;50.080;21.992;2023-03-07T02:18:53;97815.13;;;-0.74;89.33
65872;BME280;52653;50.080;21.992;2023-03-07T02:21:35;97814.38;;;-0.66;89.57
65872;BME280;52653;50.080;21.992;2023-03-07T02:24:17;97813.80;;;-0.57;89.52
65872;BME280;52653;50.080;21.992;2023-03-07T02:26:53;97812.02;;;-0.49;89.57
65872;BME280;52653;50.080;21.992;2023-03-07T02:29:26;97809.02;;;-0.40;89.51
65872;BME280;52653;50.080;21.992;2023-03-07T02:31:59;97808.95;;;-0.34;89.35
65872;BME280;52653;50.080;21.992;2023-03-07T02:34:32;97811.09;;;-0.26;89.38
65872;BME280;52653;50.080;21.992;2023-03-07T02:37:14;97811.36;;;-0.19;89.07
65872;BME280;52653;50.080;21.992;2023-03-07T02:39:49;97809.89;;;-0.13;89.03
65872;BME280;52653;50.080;21.992;2023-03-07T02:42:24;97808.23;;;-0.07;88.79
65872;BME280;52653;50.080;21.992;2023-03-07T02:45:07;97807.60;;;-0.02;88.64
65872;BME280;52653;50.080;21.992;2023-03-07T02:47:44;97807.33;;;0.04;88.43
65872;BME280;52653;50.080;21.992;2023-03-07T02:50:19;97803.91;;;0.08;88.36
65872;BME280;52653;50.080;21.992;2023-03-07T02:53:04;97803.79;;;0.12;88.09
65872;BME280;52653;50.080;21.992;2023-03-07T02:55:50;97804.36;;;0.16;87.87
65872;BME280;52653;50.080;21.992;2023-03-07T02:58:43;97804.89;;;0.18;87.64
65872;BME280;52653;50.080;21.992;2023-03-07T03:01:27;97804.90;;;0.19;87.50
65872;BME280;52653;50.080;21.992;2023-03-07T03:04:20;97803.00;;;0.18;87.24
65872;BME280;52653;50.080;21.992;2023-03-07T03:07:06;97806.21;;;0.13;86.77
65872;BME280;52653;50.080;21.992;2023-03-07T03:09:50;97805.11;;;0.06;86.63
65872;BME280;52653;50.080;21.992;2023-03-07T03:12:25;97808.44;;;-0.04;86.29
65872;BME280;52653;50.080;21.992;2023-03-07T03:15:04;97809.38;;;-0.12;86.48
65872;BME280;52653;50.080;21.992;2023-03-07T03:17:53;97813.59;;;-0.20;86.44
65872;BME280;52653;50.080;21.992;2023-03-07T03:20:39;97812.64;;;-0.28;86.49
65872;BME280;52653;50.080;21.992;2023-03-07T03:23:32;97811.49;;;-0.37;86.53
65872;BME280;52653;50.080;21.992;2023-03-07T03:26:26;97811.22;;;-0.45;86.37
65872;BME280;52653;50.080;21.992;2023-03-07T03:28:59;97812.84;;;-0.52;86.50
65872;BME280;52653;50.080;21.992;2023-03-07T03:31:45;97811.70;;;-0.60;86.53
65872;BME280;52653;50.080;21.992;2023-03-07T03:34:38;97812.30;;;-0.67;86.68
65872;BME280;52653;50.080;21.992;2023-03-07T03:37:33;97812.55;;;-0.74;86.72
65872;BME280;52653;50.080;21.992;2023-03-07T03:40:09;97816.24;;;-0.79;86.84
65872;BME280;52653;50.080;21.992;2023-03-07T03:42:58;97814.11;;;-0.84;86.94
65872;BME280;52653;50.080;21.992;2023-03-07T03:45:34;97815.41;;;-0.90;87.11
65872;BME280;52653;50.080;21.992;2023-03-07T03:48:21;97817.06;;;-0.95;87.13
65872;BME280;52653;50.080;21.992;2023-03-07T03:51:07;97820.11;;;-0.98;87.31
65872;BME280;52653;50.080;21.992;2023-03-07T03:54:00;97822.64;;;-1.01;87.26
65872;BME280;52653;50.080;21.992;2023-03-07T03:56:46;97826.04;;;-1.03;87.71
65872;BME280;52653;50.080;21.992;2023-03-07T03:59:41;97822.75;;;-1.04;87.73
65872;BME280;52653;50.080;21.992;2023-03-07T04:02:28;97821.55;;;-1.04;88.03
65872;BME280;52653;50.080;21.992;2023-03-07T04:05:08;97826.89;;;-1.04;88.20
65872;BME280;52653;50.080;21.992;2023-03-07T04:07:54;97831.96;;;-1.00;88.47
65872;BME280;52653;50.080;21.992;2023-03-07T04:10:48;97825.83;;;-0.95;88.45
65872;BME280;52653;50.080;21.992;2023-03-07T04:13:31;97824.04;;;-0.88;88.64
65872;BME280;52653;50.080;21.992;2023-03-07T04:16:16;97820.55;;;-0.79;88.80
65872;BME280;52653;50.080;21.992;2023-03-07T04:18:59;97818.80;;;-0.69;88.72
65872;BME280;52653;50.080;21.992;2023-03-07T04:21:52;97821.88;;;-0.59;88.79
65872;BME280;52653;50.080;21.992;2023-03-07T04:24:45;97819.60;;;-0.49;88.62
65872;BME280;52653;50.080;21.992;2023-03-07T04:27:32;97816.27;;;-0.40;88.34
65872;BME280;52653;50.080;21.992;2023-03-07T04:30:18;97808.27;;;-0.33;88.24
65872;BME280;52653;50.080;21.992;2023-03-07T04:33:12;97813.88;;;-0.25;88.07
65872;BME280;52653;50.080;21.992;2023-03-07T04:35:56;97815.48;;;-0.20;87.89
65872;BME280;52653;50.080;21.992;2023-03-07T04:38:50;97814.84;;;-0.15;87.60
65872;BME280;52653;50.080;21.992;2023-03-07T04:41:38;97814.92;;;-0.10;87.61
65872;BME280;52653;50.080;21.992;2023-03-07T04:44:19;97818.57;;;-0.07;87.36
65872;BME280;52653;50.080;21.992;2023-03-07T04:47:12;97825.88;;;-0.01;87.23
65872;BME280;52653;50.080;21.992;2023-03-07T04:50:06;97826.11;;;0.04;87.38
65872;BME280;52653;50.080;21.992;2023-03-07T04:52:59;97828.92;;;0.10;87.25
65872;BME280;52653;50.080;21.992;2023-03-07T04:55:57;97827.62;;;0.15;87.03
65872;BME280;52653;50.080;21.992;2023-03-07T04:58:50;97828.70;;;0.20;86.82
65872;BME280;52653;50.080;21.992;2023-03-07T05:01:43;97823.92;;;0.25;86.69
65872;BME280;52653;50.080;21.992;2023-03-07T05:04:37;97823.98;;;0.30;86.49
65872;BME280;52653;50.080;21.992;2023-03-07T05:07:29;97822.81;;;0.36;86.30
65872;BME280;52653;50.080;21.992;2023-03-07T05:10:22;97827.55;;;0.41;86.20
65872;BME280;52653;50.080;21.992;2023-03-07T05:12:55;97827.23;;;0.46;86.19
65872;BME280;52653;50.080;21.992;2023-03-07T05:15:52;97829.38;;;0.51;85.90
65872;BME280;52653;50.080;21.992;2023-03-07T05:18:40;97830.45;;;0.55;85.58
65872;BME280;52653;50.080;21.992;2023-03-07T05:21:33;97827.88;;;0.58;85.62
65872;BME280;52653;50.080;21.992;2023-03-07T05:24:26;97833.61;;;0.63;85.33
65872;BME280;52653;50.080;21.992;2023-03-07T05:27:19;97832.62;;;0.66;85.06
65872;BME280;52653;50.080;21.992;2023-03-07T05:29:55;97834.70;;;0.70;85.06
65872;BME280;52653;50.080;21.992;2023-03-07T05:32:48;97834.23;;;0.74;85.08
65872;BME280;52653;50.080;21.992;2023-03-07T05:35:34;97836.01;;;0.78;84.87
65872;BME280;52653;50.080;21.992;2023-03-07T05:38:29;97838.09;;;0.81;84.38
65872;BME280;52653;50.080;21.992;2023-03-07T05:41:22;97836.90;;;0.84;84.26
65872;BME280;52653;50.080;21.992;2023-03-07T05:44:15;97842.11;;;0.88;84.02
65872;BME280;52653;50.080;21.992;2023-03-07T05:47:08;97837.67;;;0.92;83.82
65872;BME280;52653;50.080;21.992;2023-03-07T05:50:02;97838.55;;;0.95;83.88
65872;BME280;52653;50.080;21.992;2023-03-07T05:52:55;97838.41;;;1.00;83.75
65872;BME280;52653;50.080;21.992;2023-03-07T05:55:48;97840.18;;;1.04;83.62
65872;BME280;52653;50.080;21.992;2023-03-07T05:58:41;97838.66;;;1.09;83.52
65872;BME280;52653;50.080;21.992;2023-03-07T06:01:34;97841.12;;;1.15;83.43
65872;BME280;52653;50.080;21.992;2023-03-07T06:04:27;97842.04;;;1.21;83.25
65872;BME280;52653;50.080;21.992;2023-03-07T06:07:21;97841.52;;;1.25;83.03
65872;BME280;52653;50.080;21.992;2023-03-07T06:10:03;97845.20;;;1.29;82.73
65872;BME280;52653;50.080;21.992;2023-03-07T06:12:42;97849.89;;;1.33;82.45
65872;BME280;52653;50.080;21.992;2023-03-07T06:15:35;97849.91;;;1.38;82.28
65872;BME280;52653;50.080;21.992;2023-03-07T06:18:28;97849.62;;;1.43;82.16
65872;BME280;52653;50.080;21.992;2023-03-07T06:21:09;97852.57;;;1.48;81.96
65872;BME280;52653;50.080;21.992;2023-03-07T06:23:51;97855.02;;;1.53;81.75
65872;BME280;52653;50.080;21.992;2023-03-07T06:26:34;97857.30;;;1.57;81.39
65872;BME280;52653;50.080;21.992;2023-03-07T06:29:24;97855.44;;;1.65;81.33
65872;BME280;52653;50.080;21.992;2023-03-07T06:32:01;97851.33;;;1.73;81.19
65872;BME280;52653;50.080;21.992;2023-03-07T06:34:53;97850.52;;;1.83;80.74
65872;BME280;52653;50.080;21.992;2023-03-07T06:37:35;97855.02;;;1.89;80.51
65872;BME280;52653;50.080;21.992;2023-03-07T06:40:20;97855.77;;;1.94;80.38
65872;BME280;52653;50.080;21.992;2023-03-07T06:43:13;97851.98;;;2.01;80.08
65872;BME280;52653;50.080;21.992;2023-03-07T06:45:49;97852.89;;;2.08;79.55
65872;BME280;52653;50.080;21.992;2023-03-07T06:48:22;97850.31;;;2.18;79.65
65872;BME280;52653;50.080;21.992;2023-03-07T06:51:16;97848.29;;;2.30;79.23
65872;BME280;52653;50.080;21.992;2023-03-07T06:53:59;97847.79;;;2.40;78.92
65872;BME280;52653;50.080;21.992;2023-03-07T06:56:35;97851.27;;;2.51;78.43
65872;BME280;52653;50.080;21.992;2023-03-07T06:59:18;97847.66;;;2.62;78.13
65872;BME280;52653;50.080;21.992;2023-03-07T07:02:13;97849.06;;;2.74;77.95
65872;BME280;52653;50.080;21.992;2023-03-07T07:05:08;97845.79;;;2.84;77.57
65872;BME280;52653;50.080;21.992;2023-03-07T07:07:44;97845.45;;;2.95;77.21
65872;BME280;52653;50.080;21.992;2023-03-07T07:10:36;97847.88;;;3.04;76.17
65872;BME280;52653;50.080;21.992;2023-03-07T07:13:29;97846.14;;;3.18;76.07
65872;BME280;52653;50.080;21.992;2023-03-07T07:16:23;97848.38;;;3.34;75.82
65872;BME280;52653;50.080;21.992;2023-03-07T07:19:16;97850.27;;;3.49;74.84
65872;BME280;52653;50.080;21.992;2023-03-07T07:22:11;97847.29;;;3.64;74.31
65872;BME280;52653;50.080;21.992;2023-03-07T07:24:59;97851.39;;;3.85;73.88
65872;BME280;52653;50.080;21.992;2023-03-07T07:27:35;97852.37;;;4.06;73.64
65872;BME280;52653;50.080;21.992;2023-03-07T07:30:20;97852.45;;;4.26;73.10
65872;BME280;52653;50.080;21.992;2023-03-07T07:32:56;97852.40;;;4.37;72.61
65872;BME280;52653;50.080;21.992;2023-03-07T07:35:30;97849.23;;;4.43;72.11
65872;BME280;52653;50.080;21.992;2023-03-07T07:38:14;97849.57;;;4.48;71.39
65872;BME280;52653;50.080;21.992;2023-03-07T07:40:47;97850.58;;;4.53;71.16
65872;BME280;52653;50.080;21.992;2023-03-07T07:43:31;97850.73;;;4.55;71.01
65872;BME280;52653;50.080;21.992;2023-03-07T07:46:40;97849.52;;;4.59;70.91
65872;BME280;52653;50.080;21.992;2023-03-07T07:49:34;97850.70;;;4.63;70.74
65872;BME280;52653;50.080;21.992;2023-03-07T07:52:18;97848.42;;;4.65;70.50
65872;BME280;52653;50.080;21.992;2023-03-07T07:55:14;97848.41;;;4.66;70.01
65872;BME280;52653;50.080;21.992;2023-03-07T07:57:58;97843.71;;;4.69;70.10
65872;BME280;52653;50.080;21.992;2023-03-07T08:00:51;97843.98;;;4.80;69.86
65872;BME280;52653;50.080;21.992;2023-03-07T08:03:44;97843.77;;;4.88;68.90
65872;BME280;52653;50.080;21.992;2023-03-07T08:06:38;97839.84;;;4.99;68.98
65872;BME280;52653;50.080;21.992;2023-03-07T08:09:20;97840.95;;;5.14;68.68
65872;BME280;52653;50.080;21.992;2023-03-07T08:11:56;97838.75;;;5.28;68.68
65872;BME280;52653;50.080;21.992;2023-03-07T08:14:48;97839.73;;;5.36;67.49
65872;BME280;52653;50.080;21.992;2023-03-07T08:17:41;97835.13;;;5.43;67.50
65872;BME280;52653;50.080;21.992;2023-03-07T08:20:35;97833.46;;;5.54;67.26
65872;BME280;52653;50.080;21.992;2023-03-07T08:23:28;97829.89;;;5.62;66.86
65872;BME280;52653;50.080;21.992;2023-03-07T08:26:08;97827.73;;;5.70;66.74
65872;BME280;52653;50.080;21.992;2023-03-07T08:28:51;97831.27;;;5.80;66.66
65872;BME280;52653;50.080;21.992;2023-03-07T08:31:46;97830.33;;;5.88;66.27
65872;BME280;52653;50.080;21.992;2023-03-07T08:34:21;97825.98;;;6.05;66.57
65872;BME280;52653;50.080;21.992;2023-03-07T08:37:14;97827.82;;;6.25;66.14
65872;BME280;52653;50.080;21.992;2023-03-07T08:39:47;97827.08;;;6.41;65.09
65872;BME280;52653;50.080;21.992;2023-03-07T08:42:41;97830.35;;;6.57;64.95
65872;BME280;52653;50.080;21.992;2023-03-07T08:45:15;97831.34;;;6.71;64.30
65872;BME280;52653;50.080;21.992;2023-03-07T08:48:09;97828.69;;;6.86;63.53
65872;BME280;52653;50.080;21.992;2023-03-07T08:50:44;97830.09;;;6.97;62.04
65872;BME280;52653;50.080;21.992;2023-03-07T08:53:26;97826.20;;;7.12;62.36
65872;BME280;52653;50.080;21.992;2023-03-07T08:56:07;97825.80;;;7.25;62.07
65872;BME280;52653;50.080;21.992;2023-03-07T08:58:50;97825.75;;;7.38;61.75
65872;BME280;52653;50.080;21.992;2023-03-07T09:01:28;97819.40;;;7.52;61.67
65872;BME280;52653;50.080;21.992;2023-03-07T09:04:04;97819.64;;;7.67;61.77
65872;BME280;52653;50.080;21.992;2023-03-07T09:06:37;97820.59;;;7.82;61.81
65872;BME280;52653;50.080;21.992;2023-03-07T09:09:24;97820.70;;;7.94;61.54
65872;BME280;52653;50.080;21.992;2023-03-07T09:12:17;97817.91;;;7.94;60.53
65872;BME280;52653;50.080;21.992;2023-03-07T09:15:02;97812.98;;;7.87;59.90
65872;BME280;52653;50.080;21.992;2023-03-07T09:17:48;97812.52;;;7.76;59.13
65872;BME280;52653;50.080;21.992;2023-03-07T09:20:33;97808.59;;;7.61;58.70
65872;BME280;52653;50.080;21.992;2023-03-07T09:23:26;97801.67;;;7.49;58.26
65872;BME280;52653;50.080;21.992;2023-03-07T09:26:21;97798.59;;;7.35;58.59
65872;BME280;52653;50.080;21.992;2023-03-07T09:29:14;97795.36;;;7.31;58.90
65872;BME280;52653;50.080;21.992;2023-03-07T09:32:02;97789.95;;;7.31;59.02
65872;BME280;52653;50.080;21.992;2023-03-07T09:34:56;97790.09;;;7.32;59.17
65872;BME280;52653;50.080;21.992;2023-03-07T09:37:49;97789.52;;;7.36;59.63
65872;BME280;52653;50.080;21.992;2023-03-07T09:40:44;97787.58;;;7.37;58.73
65872;BME280;52653;50.080;21.992;2023-03-07T09:43:43;97784.39;;;7.30;57.44
65872;BME280;52653;50.080;21.992;2023-03-07T09:46:53;97783.51;;;7.21;57.65
65872;BME280;52653;50.080;21.992;2023-03-07T09:49:42;97781.36;;;7.15;57.50
65872;BME280;52653;50.080;21.992;2023-03-07T09:52:29;97779.87;;;7.19;58.26
65872;BME280;52653;50.080;21.992;2023-03-07T09:55:16;97782.42;;;7.23;57.59
65872;BME280;52653;50.080;21.992;2023-03-07T09:57:54;97777.64;;;7.27;57.58
65872;BME280;52653;50.080;21.992;2023-03-07T10:00:53;97778.96;;;7.41;58.31
65872;BME280;52653;50.080;21.992;2023-03-07T10:03:43;97773.90;;;7.51;57.41
65872;BME280;52653;50.080;21.992;2023-03-07T10:06:40;97773.01;;;7.52;56.52
65872;BME280;52653;50.080;21.992;2023-03-07T10:09:34;97770.06;;;7.41;56.51
65872;BME280;52653;50.080;21.992;2023-03-07T10:12:35;97765.59;;;7.29;56.40
65872;BME280;52653;50.080;21.992;2023-03-07T10:15:38;97767.01;;;7.37;57.33
65872;BME280;52653;50.080;21.992;2023-03-07T10:18:44;97768.09;;;7.62;57.37
65872;BME280;52653;50.080;21.992;2023-03-07T10:21:36;97760.05;;;7.72;55.87
65872;BME280;52653;50.080;21.992;2023-03-07T10:24:41;97756.23;;;7.70;54.76
65872;BME280;52653;50.080;21.992;2023-03-07T10:27:31;97753.19;;;7.75;54.33
65872;BME280;52653;50.080;21.992;2023-03-07T10:30:23;97752.33;;;7.83;54.60
65872;BME280;52653;50.080;21.992;2023-03-07T10:33:18;97747.15;;;7.97;53.21
65872;BME280;52653;50.080;21.992;2023-03-07T10:35:55;97748.56;;;8.05;51.44
65872;BME280;52653;50.080;21.992;2023-03-07T10:38:36;97745.45;;;8.11;52.23
65872;BME280;52653;50.080;21.992;2023-03-07T10:41:15;97737.69;;;8.15;52.43
65872;BME280;52653;50.080;21.992;2023-03-07T10:43:50;97730.95;;;8.19;52.49
65872;BME280;52653;50.080;21.992;2023-03-07T10:46:28;97726.45;;;8.25;52.82
65872;BME280;52653;50.080;21.992;2023-03-07T10:49:10;97721.17;;;8.35;52.35
65872;BME280;52653;50.080;21.992;2023-03-07T10:51:59;97716.34;;;8.42;51.96
65872;BME280;52653;50.080;21.992;2023-03-07T10:54:37;97713.09;;;8.54;52.09
65872;BME280;52653;50.080;21.992;2023-03-07T10:57:12;97717.52;;;8.59;50.96
65872;BME280;52653;50.080;21.992;2023-03-07T10:59:47;97710.23;;;8.63;51.39
65872;BME280;52653;50.080;21.992;2023-03-07T11:02:35;97705.98;;;8.66;51.52
65872;BME280;52653;50.080;21.992;2023-03-07T11:05:26;97704.96;;;8.71;51.99
65872;BME280;52653;50.080;21.992;2023-03-07T11:08:21;97696.55;;;8.79;51.08
65872;BME280;52653;50.080;21.992;2023-03-07T11:10:59;97696.05;;;8.79;50.46
65872;BME280;52653;50.080;21.992;2023-03-07T11:13:34;97690.92;;;8.80;50.15
65872;BME280;52653;50.080;21.992;2023-03-07T11:16:17;97685.07;;;8.83;50.45
65872;BME280;52653;50.080;21.992;2023-03-07T11:18:51;97687.26;;;8.81;49.81
65872;BME280;52653;50.080;21.992;2023-03-07T11:21:32;97681.31;;;8.73;49.37
65872;BME280;52653;50.080;21.992;2023-03-07T11:24:16;97679.79;;;8.65;49.87
65872;BME280;52653;50.080;21.992;2023-03-07T11:26:54;97671.82;;;8.55;49.77
65872;BME280;52653;50.080;21.992;2023-03-07T11:29:28;97673.55;;;8.62;50.97
65872;BME280;52653;50.080;21.992;2023-03-07T11:32:11;97671.71;;;8.73;50.69
65872;BME280;52653;50.080;21.992;2023-03-07T11:34:49;97668.26;;;8.79;49.61
65872;BME280;52653;50.080;21.992;2023-03-07T11:37:28;97659.70;;;8.85;49.89
65872;BME280;52653;50.080;21.992;2023-03-07T11:40:22;97658.24;;;8.94;49.48
65872;BME280;52653;50.080;21.992;2023-03-07T11:43:09;97654.50;;;8.96;49.72
65872;BME280;52653;50.080;21.992;2023-03-07T11:45:51;97648.34;;;8.98;48.88
65872;BME280;52653;50.080;21.992;2023-03-07T11:48:37;97633.21;;;8.88;48.34
65872;BME280;52653;50.080;21.992;2023-03-07T11:51:28;97636.98;;;8.84;49.03
65872;BME280;52653;50.080;21.992;2023-03-07T11:54:10;97628.16;;;8.80;48.57
65872;BME280;52653;50.080;21.992;2023-03-07T11:57:13;97619.31;;;8.85;49.15
65872;BME280;52653;50.080;21.992;2023-03-07T12:00:10;97613.88;;;8.92;48.95
65872;BME280;52653;50.080;21.992;2023-03-07T12:03:01;97609.50;;;8.98;48.96
65872;BME280;52653;50.080;21.992;2023-03-07T12:05:46;97603.21;;;9.05;48.37
65872;BME280;52653;50.080;21.992;2023-03-07T12:08:33;97596.02;;;9.18;48.15
65872;BME280;52653;50.080;21.992;2023-03-07T12:11:20;97589.95;;;9.35;47.65
65872;BME280;52653;50.080;21.992;2023-03-07T12:14:03;97586.60;;;9.53;47.30
65872;BME280;52653;50.080;21.992;2023-03-07T12:16:49;97588.83;;;9.60;46.68
65872;BME280;52653;50.080;21.992;2023-03-07T12:25:10;97596.81;;;9.58;46.24
65872;BME280;52653;50.080;21.992;2023-03-07T12:27:48;97595.63;;;9.44;46.41
65872;BME280;52653;50.080;21.992;2023-03-07T12:30:25;97590.63;;;9.35;46.77
65872;BME280;52653;50.080;21.992;2023-03-07T12:33:05;97590.27;;;9.30;46.86
65872;BME280;52653;50.080;21.992;2023-03-07T12:35:43;97586.06;;;9.24;46.82
65872;BME280;52653;50.080;21.992;2023-03-07T12:38:25;97591.72;;;9.16;46.44
65872;BME280;52653;50.080;21.992;2023-03-07T12:41:02;97598.47;;;9.06;46.61
65872;BME280;52653;50.080;21.992;2023-03-07T12:43:39;97594.80;;;8.92;46.81
65872;BME280;52653;50.080;21.992;2023-03-07T12:46:19;97600.19;;;8.68;47.18
65872;BME280;52653;50.080;21.992;2023-03-07T12:48:59;97600.90;;;8.47;47.86
65872;BME280;52653;50.080;21.992;2023-03-07T12:51:39;97605.17;;;8.28;47.74
65872;BME280;52653;50.080;21.992;2023-03-07T12:54:19;97600.65;;;8.13;48.03
65872;BME280;52653;50.080;21.992;2023-03-07T12:56:55;97602.11;;;8.04;48.37
65872;BME280;52653;50.080;21.992;2023-03-07T12:59:33;97601.83;;;8.01;48.40
65872;BME280;52653;50.080;21.992;2023-03-07T13:02:12;97601.94;;;8.03;48.84
65872;BME280;52653;50.080;21.992;2023-03-07T13:04:46;97602.48;;;8.09;49.07
65872;BME280;52653;50.080;21.992;2023-03-07T13:07:23;97598.23;;;8.11;49.06
65872;BME280;52653;50.080;21.992;2023-03-07T13:09:57;97598.95;;;8.11;49.33
65872;BME280;52653;50.080;21.992;2023-03-07T13:12:33;97595.73;;;8.14;49.97
65872;BME280;52653;50.080;21.992;2023-03-07T13:15:42;97594.89;;;8.20;49.57
65872;BME280;52653;50.080;21.992;2023-03-07T13:18:26;97589.27;;;8.29;49.76
65872;BME280;52653;50.080;21.992;2023-03-07T13:21:31;97587.33;;;8.38;49.98
65872;BME280;52653;50.080;21.992;2023-03-07T13:24:31;97590.27;;;8.39;49.45
65872;BME280;52653;50.080;21.992;2023-03-07T13:27:12;97585.23;;;8.37;49.14
65872;BME280;52653;50.080;21.992;2023-03-07T13:30:17;97589.30;;;8.35;48.92
65872;BME280;52653;50.080;21.992;2023-03-07T13:32:58;97588.57;;;8.36;49.33
65872;BME280;52653;50.080;21.992;2023-03-07T13:35:56;97589.17;;;8.33;48.19
65872;BME280;52653;50.080;21.992;2023-03-07T13:38:33;97585.33;;;8.25;48.24
65872;BME280;52653;50.080;21.992;2023-03-07T13:41:44;97589.32;;;8.27;49.20
65872;BME280;52653;50.080;21.992;2023-03-07T13:44:38;97586.58;;;8.24;49.88
65872;BME280;52653;50.080;21.992;2023-03-07T13:47:41;97583.56;;;8.26;50.23
65872;BME280;52653;50.080;21.992;2023-03-07T13:50:38;97576.86;;;8.29;50.20
65872;BME280;52653;50.080;21.992;2023-03-07T13:53:35;97580.59;;;8.26;50.19
65872;BME280;52653;50.080;21.992;2023-03-07T13:56:26;97577.64;;;8.25;50.23
65872;BME280;52653;50.080;21.992;2023-03-07T13:59:05;97577.86;;;8.23;50.03
65872;BME280;52653;50.080;21.992;2023-03-07T14:02:13;97575.85;;;8.20;50.37
65872;BME280;52653;50.080;21.992;2023-03-07T14:04:50;97573.20;;;8.15;49.99
65872;BME280;52653;50.080;21.992;2023-03-07T14:07:39;97574.00;;;8.17;50.61
65872;BME280;52653;50.080;21.992;2023-03-07T14:10:20;97572.81;;;8.23;50.98
65872;BME280;52653;50.080;21.992;2023-03-07T14:16:22;97568.66;;;8.29;50.71
65872;BME280;52653;50.080;21.992;2023-03-07T14:19:21;97571.73;;;8.24;50.19
65872;BME280;52653;50.080;21.992;2023-03-07T14:22:33;97571.81;;;8.21;50.48
65872;BME280;52653;50.080;21.992;2023-03-07T14:25:28;97571.61;;;8.15;50.64
65872;BME280;52653;50.080;21.992;2023-03-07T14:28:24;97567.13;;;8.05;50.17
65872;BME280;52653;50.080;21.992;2023-03-07T14:31:10;97565.52;;;8.01;50.83
65872;BME280;52653;50.080;21.992;2023-03-07T14:34:26;97565.88;;;7.99;51.16
65872;BME280;52653;50.080;21.992;2023-03-07T14:37:23;97556.70;;;7.96;51.05
65872;BME280;52653;50.080;21.992;2023-03-07T14:40:37;97552.45;;;7.92;51.10